createdAt,value
2018-09-28T00:00:18.325Z,9.40
2018-09-28T00:05:21.415Z,9.50
2018-09-28T00:10:24.388Z,9.30
2018-09-28T00:15:27.467Z,9.40
2018-09-28T00:20:30.492Z,9.40
2018-09-28T00:25:33.508Z,9.50
2018-09-28T00:30:36.628Z,9.20
2018-09-28T00:35:39.728Z,9.10
2018-09-28T00:40:42.865Z,9.10
2018-09-28T00:45:46.139Z,9.10
2018-09-28T00:50:49.145Z,9.20
2018-09-28T00:55:52.168Z,9.00
2018-09-28T01:00:55.214Z,8.90
2018-09-28T01:05:58.364Z,8.90
2018-09-28T01:11:01.336Z,8.90
2018-09-28T01:16:04.355Z,8.80
2018-09-28T01:21:07.388Z,8.90
2018-09-28T01:26:10.555Z,8.90
2018-09-28T01:31:13.572Z,8.80
2018-09-28T01:36:16.656Z,8.80
2018-09-28T01:41:19.740Z,8.80
2018-09-28T01:46:22.761Z,8.80
2018-09-28T01:51:25.758Z,8.80
2018-09-28T01:56:28.894Z,8.80
2018-09-28T02:01:31.874Z,8.90
2018-09-28T02:06:34.884Z,9.00
2018-09-28T02:11:37.900Z,9.10
2018-09-28T02:16:40.861Z,9.30
2018-09-28T02:21:43.954Z,9.30
2018-09-28T02:26:46.993Z,9.60
2018-09-28T02:31:49.977Z,10.10
2018-09-28T02:36:53.402Z,10.30
2018-09-28T02:41:56.451Z,10.20
2018-09-28T02:46:59.428Z,10.10
2018-09-28T02:52:02.485Z,10.00
2018-09-28T02:57:05.630Z,9.90
2018-09-28T03:02:08.951Z,9.80
2018-09-28T03:07:11.928Z,9.60
2018-09-28T03:12:14.912Z,9.30
2018-09-28T03:17:17.915Z,9.00
2018-09-28T03:22:20.931Z,9.00
2018-09-28T03:27:23.890Z,8.90
2018-09-28T03:32:26.916Z,8.90
2018-09-28T03:37:30.038Z,8.80
2018-09-28T03:42:33.049Z,8.90
2018-09-28T03:47:36.508Z,8.70
2018-09-28T03:52:39.492Z,8.50
2018-09-28T03:57:42.517Z,8.30
2018-09-28T04:02:45.551Z,8.20
2018-09-28T04:07:48.513Z,8.10
2018-09-28T04:12:51.552Z,8.00
2018-09-28T04:17:54.578Z,8.00
2018-09-28T04:22:57.622Z,8.00
2018-09-28T04:28:00.668Z,7.90
2018-09-28T04:33:03.661Z,7.90
2018-09-28T04:38:06.669Z,7.90
2018-09-28T04:43:09.784Z,7.80
2018-09-28T04:48:12.781Z,7.80
2018-09-28T04:53:15.795Z,7.70
2018-09-28T04:58:19.566Z,7.70
2018-09-28T05:03:22.624Z,7.60
2018-09-28T05:08:25.631Z,7.60
2018-09-28T05:13:28.630Z,7.60
2018-09-28T05:18:31.639Z,7.60
2018-09-28T05:23:34.689Z,7.50
2018-09-28T05:28:37.876Z,7.50
2018-09-28T05:33:40.876Z,7.50
2018-09-28T05:38:43.947Z,7.60
2018-09-28T05:43:47.038Z,7.80
2018-09-28T05:48:50.124Z,8.00
2018-09-28T05:53:53.361Z,8.00
2018-09-28T05:59:02.094Z,8.00
2018-09-28T06:04:10.978Z,8.30
2018-09-28T06:09:14.012Z,9.40
2018-09-28T06:14:17.044Z,10.70
2018-09-28T06:19:20.049Z,11.90
2018-09-28T06:24:23.100Z,12.30
2018-09-28T06:29:26.145Z,12.60
2018-09-28T06:34:29.156Z,13.40
2018-09-28T06:39:32.175Z,14.00
2018-09-28T06:44:35.268Z,14.00
2018-09-28T06:49:38.336Z,14.10
2018-09-28T06:54:41.437Z,14.70
2018-09-28T06:59:44.558Z,15.90
2018-09-28T07:04:47.605Z,16.60
2018-09-28T07:09:50.852Z,17.20
2018-09-28T07:14:54.644Z,16.90
2018-09-28T07:19:57.782Z,17.20
2018-09-28T07:25:00.846Z,17.30
2018-09-28T07:30:04.335Z,17.90
2018-09-28T07:35:07.374Z,18.00
2018-09-28T07:40:10.421Z,18.50
2018-09-28T07:45:13.443Z,18.80
2018-09-28T07:50:16.634Z,18.30
2018-09-28T07:55:19.704Z,18.40
2018-09-28T08:00:22.769Z,18.70
2018-09-28T08:05:25.795Z,18.60
2018-09-28T08:10:28.889Z,18.70
2018-09-28T08:15:32.068Z,18.40
2018-09-28T08:20:35.157Z,18.40
2018-09-28T08:25:38.332Z,18.60
2018-09-28T08:30:41.344Z,18.70
2018-09-28T08:35:44.359Z,19.40
2018-09-28T08:40:47.557Z,19.10
2018-09-28T08:45:50.609Z,18.90
2018-09-28T08:50:53.734Z,18.90
2018-09-28T08:55:56.724Z,18.90
2018-09-28T09:00:59.793Z,18.60
2018-09-28T09:06:02.784Z,18.10
2018-09-28T09:11:05.912Z,18.10
2018-09-28T09:16:09.167Z,18.10
2018-09-28T09:21:12.397Z,18.00
2018-09-28T09:26:15.410Z,18.00
2018-09-28T09:31:18.444Z,17.80
2018-09-28T09:36:21.592Z,17.90
2018-09-28T09:41:24.660Z,17.80
2018-09-28T09:46:27.704Z,18.10
2018-09-28T09:51:30.772Z,18.30
2018-09-28T09:56:33.775Z,18.40
2018-09-28T10:01:42.396Z,18.10
2018-09-28T10:06:54.148Z,18.20
2018-09-28T10:11:57.242Z,18.10
2018-09-28T10:17:00.442Z,18.20
2018-09-28T10:22:03.660Z,18.30
2018-09-28T10:27:06.992Z,18.40
2018-09-28T10:32:10.129Z,18.50
2018-09-28T10:37:13.152Z,18.60
2018-09-28T10:42:16.230Z,18.80
2018-09-28T10:47:19.464Z,18.90
2018-09-28T10:52:22.624Z,18.80
2018-09-28T10:57:25.559Z,18.90
2018-09-28T11:02:28.607Z,19.20
2018-09-28T11:07:31.632Z,19.70
2018-09-28T11:12:34.740Z,19.60
2018-09-28T11:17:38.058Z,19.40
2018-09-28T11:22:41.092Z,19.50
2018-09-28T11:27:44.403Z,19.80
2018-09-28T11:32:47.322Z,19.60
2018-09-28T11:37:50.449Z,19.80
2018-09-28T11:42:53.530Z,20.50
2018-09-28T11:47:56.668Z,20.50
2018-09-28T11:52:59.749Z,20.70
2018-09-28T11:58:02.992Z,20.80
2018-09-28T12:03:06.098Z,20.20
2018-09-28T12:08:09.448Z,20.10
2018-09-28T12:13:12.529Z,20.20
2018-09-28T12:18:15.695Z,20.30
2018-09-28T12:23:18.706Z,20.10
2018-09-28T12:28:21.728Z,19.90
2018-09-28T12:33:24.848Z,19.50
2018-09-28T12:38:27.848Z,19.30
2018-09-28T12:43:35.032Z,19.00
2018-09-28T12:48:34.117Z,18.80
2018-09-28T12:53:37.213Z,19.00
2018-09-28T12:58:40.321Z,19.10
2018-09-28T13:03:43.445Z,19.10
2018-09-28T13:08:46.585Z,18.80
2018-09-28T13:13:49.590Z,18.80
2018-09-28T13:18:52.738Z,18.80
2018-09-28T13:23:55.858Z,18.70
2018-09-28T13:28:58.815Z,18.70
2018-09-28T13:34:07.655Z,18.40
2018-09-28T13:39:10.843Z,18.30
2018-09-28T13:44:13.919Z,17.90
2018-09-28T13:49:16.946Z,17.70
2018-09-28T13:54:20.054Z,17.40
2018-09-28T13:59:23.024Z,17.30
2018-09-28T14:04:26.252Z,17.20
2018-09-28T14:09:29.231Z,16.90
2018-09-28T14:14:32.322Z,16.80
2018-09-28T14:19:35.359Z,16.50
2018-09-28T14:24:38.509Z,16.30
2018-09-28T14:29:41.636Z,16.20
2018-09-28T14:34:44.785Z,16.20
2018-09-28T14:39:47.827Z,15.90
2018-09-28T14:44:51.088Z,15.80
2018-09-28T14:49:54.404Z,15.70
2018-09-28T14:54:57.645Z,15.60
2018-09-28T15:00:00.759Z,15.40
2018-09-28T15:05:03.899Z,15.20
2018-09-28T15:10:07.056Z,15.00
2018-09-28T15:15:10.158Z,14.90
2018-09-28T15:20:13.887Z,14.80
2018-09-28T15:25:17.026Z,14.80
2018-09-28T15:30:20.303Z,14.60
2018-09-28T15:35:23.483Z,14.50
2018-09-28T15:40:26.721Z,14.40
2018-09-28T15:45:29.928Z,14.40
2018-09-28T15:50:33.166Z,14.30
2018-09-28T15:55:36.303Z,14.30
2018-09-28T16:00:39.485Z,14.30
2018-09-28T16:05:42.552Z,14.30
2018-09-28T16:10:45.651Z,14.30
2018-09-28T16:15:48.928Z,14.30
2018-09-28T16:26:01.029Z,14.30
2018-09-28T16:31:04.086Z,14.30
2018-09-28T16:36:07.217Z,14.30
2018-09-28T16:41:10.579Z,14.30
2018-09-28T16:46:13.776Z,14.30
2018-09-28T16:51:17.041Z,14.30
2018-09-28T16:56:20.129Z,14.30
2018-09-28T17:01:23.212Z,14.20
2018-09-28T17:06:26.289Z,14.30
2018-09-28T17:11:29.307Z,14.20
2018-09-28T17:16:32.578Z,14.20
2018-09-28T17:21:35.719Z,14.20
2018-09-28T17:26:38.883Z,14.20
2018-09-28T17:31:41.892Z,14.20
2018-09-28T17:36:44.980Z,14.10
2018-09-28T17:41:47.974Z,14.20
2018-09-28T17:46:50.993Z,14.10
2018-09-28T17:51:54.193Z,14.10
2018-09-28T17:56:58.012Z,14.10
2018-09-28T18:02:01.234Z,14.10
2018-09-28T18:07:04.322Z,14.10
2018-09-28T18:12:07.438Z,14.10
2018-09-28T18:17:10.629Z,14.00
2018-09-28T18:22:13.798Z,13.90
2018-09-28T18:27:17.488Z,13.80
2018-09-28T18:32:20.485Z,13.70
2018-09-28T18:37:23.587Z,13.80
2018-09-28T18:42:26.644Z,13.70
2018-09-28T18:47:29.915Z,13.70
2018-09-28T18:52:33.141Z,13.50
2018-09-28T18:57:36.693Z,13.40
2018-09-28T19:02:40.078Z,13.40
2018-09-28T19:07:43.406Z,13.30
2018-09-28T19:12:46.580Z,13.20
2018-09-28T19:17:49.678Z,13.00
2018-09-28T19:22:52.866Z,12.90
2018-09-28T19:27:56.134Z,12.70
2018-09-28T19:32:59.176Z,12.50
2018-09-28T19:38:02.322Z,12.20
2018-09-28T19:43:05.820Z,12.00
2018-09-28T19:48:09.763Z,12.00
2018-09-28T19:53:12.883Z,11.90
2018-09-28T19:58:16.026Z,11.60
2018-09-28T20:03:19.207Z,11.40
2018-09-28T20:08:22.298Z,11.10
2018-09-28T20:13:25.748Z,11.00
2018-09-28T20:18:28.876Z,11.10
2018-09-28T20:23:32.472Z,11.00
2018-09-28T20:28:35.548Z,10.80
2018-09-28T20:33:38.680Z,10.80
2018-09-28T20:38:41.797Z,10.70
2018-09-28T20:43:45.014Z,10.50
2018-09-28T20:48:48.152Z,10.50
2018-09-28T20:53:51.230Z,10.30
2018-09-28T20:58:54.305Z,10.10
2018-09-28T21:03:57.683Z,10.10
2018-09-28T21:09:00.789Z,10.20
2018-09-28T21:14:03.832Z,10.20
2018-09-28T21:19:07.143Z,10.40
2018-09-28T21:24:10.140Z,10.50
2018-09-28T21:29:13.564Z,10.20
2018-09-28T21:34:16.635Z,10.20
2018-09-28T21:39:19.666Z,10.40
2018-09-28T21:44:22.862Z,10.30
2018-09-28T21:49:26.068Z,10.40
2018-09-28T21:54:29.303Z,10.50
2018-09-28T21:59:32.380Z,10.50
2018-09-28T22:04:35.565Z,10.60
2018-09-28T22:09:38.549Z,10.80
2018-09-28T22:14:41.573Z,10.80
2018-09-28T22:19:44.569Z,10.80
2018-09-28T22:24:47.554Z,10.80
2018-09-28T22:29:50.591Z,10.70
2018-09-28T22:34:53.811Z,10.80
2018-09-28T22:39:56.792Z,10.70
2018-09-28T22:44:59.738Z,10.60
2018-09-28T22:50:03.260Z,10.50
2018-09-28T22:55:06.297Z,10.30
2018-09-28T23:00:09.271Z,10.30
2018-09-28T23:05:12.273Z,10.30
2018-09-28T23:10:15.232Z,10.20
2018-09-28T23:15:18.368Z,10.10
2018-09-28T23:20:21.370Z,9.90
2018-09-28T23:25:24.364Z,9.90
2018-09-28T23:30:27.353Z,9.90
2018-09-28T23:35:30.387Z,9.70
2018-09-28T23:40:33.407Z,9.50
2018-09-28T23:45:36.502Z,9.30
2018-09-28T23:50:39.518Z,9.30
2018-09-28T23:55:42.480Z,9.30
